San Benito, Texas
Current Conditions -  °F | °C
As of 6:52 PM on Tuesday 21 Oct 2014 (Local Time) from KHRL Reporting Station
Scattered Clouds Scattered Clouds  
Wind Chill: 77°   Ceiling: Unl
Heat Index: 78°   Visibility: 10mi
Dew Point: 74°   Wind: 7mph
Humidity: 90%   Direction: 60°ENE
Pressure: 29.9"   Gusts: NA
Location:  26.13°N, 97.63°W
Report Text: KHRL 212352Z 06006KT 10SM FEW044 SCT090 25/23 A2990 RMK AO2 RAE22 SLP124 P0002 60013 T02500233 10283 20228 55001
Loading
Personal Weather Stations






























Interactive Weather Map
Tropical Storm Tracking
New forecast layout! Learn more

10-Day Weather Forecast

Advertisements
Track Severe Weather on mobile